Terminal Aerodrome Forecast
Issued by NWS Medford, OR

Home | Current Version | Previous Version | Text Only | Print | Product List | Glossary On
Versions: 1 2 3 4 5 6 7 8 9 10 11 12 13 14 15
000
FTUS46 KMFR 280542
TAFMFR
TAF
KMFR 280542Z 2806/2906 00000KT P6SM -RA FEW015 OVC035
     FM281000 VRB03KT P6SM -SHRA SCT007 OVC015
     FM281800 33003KT P6SM VCSH SCT025 BKN035
     FM282000 34003KT P6SM SCT035 BKN050=

USA.gov is the U.S. government's official web portal to all federal, state and local government web resources and services.